Time;durP1;ratioP1;P1;durP2;ratioP2;P2;SDS_P1;SDS_P2;PMS_P1;PMS_P2;Temp;Humidity;BMP_temperature;BMP_pressure;BME280_temperature;BME280_humidity;BME280_pressure;Samples;Min_cycle;Max_cycle;Signal;HPM_P1;HPM_P2
2021/12/29 00:00:13;;;;;;;5.07;1.25;;;;;;;-145.00;100.00;60578.66;5077928;28;20055;-51
2021/12/29 00:02:41;;;;;;;3.25;1.08;;;;;;;-145.00;100.00;60578.66;5077011;28;20060;-52
2021/12/29 00:05:11;;;;;;;4.68;1.30;;;;;;;-145.00;100.00;60578.66;5076990;28;20056;-51
2021/12/29 00:07:39;;;;;;;5.65;1.58;;;;;;;-145.00;100.00;60578.66;5077472;28;20057;-51
2021/12/29 00:10:08;;;;;;;3.63;1.27;;;;;;;-145.00;100.00;60578.66;5077424;28;20053;-51
2021/12/29 00:12:41;;;;;;;4.70;1.42;;;;;;;-145.00;100.00;60578.66;5077676;28;20071;-50
2021/12/29 00:15:12;;;;;;;4.38;1.20;;;;;;;-145.00;100.00;60578.66;5077689;28;20124;-51
2021/12/29 00:17:42;;;;;;;5.07;1.20;;;;;;;-145.00;100.00;60578.66;5076785;28;20057;-51
2021/12/29 00:20:12;;;;;;;4.85;1.67;;;;;;;-145.00;100.00;60578.66;5077666;28;20064;-50
2021/12/29 00:22:40;;;;;;;4.28;1.77;;;;;;;-145.00;100.00;60578.66;5077136;28;20057;-50
2021/12/29 00:25:10;;;;;;;5.15;1.20;;;;;;;-145.00;100.00;60578.66;5076175;28;20060;-49
2021/12/29 00:27:38;;;;;;;5.05;1.10;;;;;;;-145.00;100.00;60578.66;5077164;28;20053;-51
2021/12/29 00:30:08;;;;;;;4.82;1.33;;;;;;;-145.00;100.00;60578.66;5076738;28;20056;-52
2021/12/29 00:32:38;;;;;;;3.55;1.00;;;;;;;-145.00;100.00;60578.66;5077036;28;20453;-50
2021/12/29 00:35:08;;;;;;;4.72;1.17;;;;;;;-145.00;100.00;60578.66;5077625;28;20052;-50
2021/12/29 00:37:36;;;;;;;4.85;1.08;;;;;;;-145.00;100.00;60578.66;5077837;28;20057;-51
2021/12/29 00:40:05;;;;;;;2.63;1.08;;;;;;;-145.00;100.00;60578.66;5076902;28;20052;-52
2021/12/29 00:42:33;;;;;;;5.38;1.10;;;;;;;-145.00;100.00;60578.66;5076455;28;20061;-49
2021/12/29 00:45:02;;;;;;;3.95;1.17;;;;;;;-145.00;100.00;60578.66;5077046;28;20052;-51
2021/12/29 00:47:33;;;;;;;2.58;0.98;;;;;;;-145.00;100.00;60578.66;5076779;28;20052;-52
2021/12/29 00:50:06;;;;;;;5.57;1.02;;;;;;;-145.00;100.00;60578.66;5077089;28;20063;-51
2021/12/29 00:52:34;;;;;;;4.20;1.05;;;;;;;-145.00;100.00;60578.66;5076113;28;20063;-49
2021/12/29 00:55:03;;;;;;;2.80;0.80;;;;;;;-145.00;100.00;60578.66;5076793;28;20057;-50
2021/12/29 00:57:31;;;;;;;4.30;0.90;;;;;;;-145.00;100.00;60578.66;5076260;28;20057;-51
2021/12/29 01:00:00;;;;;;;3.50;1.00;;;;;;;-145.00;100.00;60578.66;5076562;28;20053;-52
2021/12/29 01:02:28;;;;;;;5.47;0.98;;;;;;;-145.00;100.00;60578.66;5076392;28;20135;-51
2021/12/29 01:04:57;;;;;;;1.77;0.57;;;;;;;-145.00;100.00;60578.66;5075909;28;20060;-52
2021/12/29 01:07:27;;;;;;;2.00;0.68;;;;;;;-145.00;100.00;60578.66;5076098;28;20057;-49
2021/12/29 01:09:55;;;;;;;3.92;0.90;;;;;;;-145.00;100.00;60578.66;5076343;28;20048;-50
2021/12/29 01:12:23;;;;;;;4.00;1.00;;;;;;;-145.00;100.00;60578.66;5075999;28;20060;-49
2021/12/29 01:14:54;;;;;;;2.22;0.80;;;;;;;-145.00;100.00;60578.66;5075733;28;20057;-49
2021/12/29 01:17:24;;;;;;;2.97;0.57;;;;;;;-145.00;100.00;60578.66;5075703;28;20057;-49
2021/12/29 01:19:54;;;;;;;2.00;0.70;;;;;;;-145.00;100.00;60578.66;5076567;28;20539;-51
2021/12/29 01:22:23;;;;;;;1.13;0.50;;;;;;;-145.00;100.00;60578.66;5075517;28;20059;-50
2021/12/29 01:24:52;;;;;;;2.75;0.70;;;;;;;-145.00;100.00;60578.66;5076121;28;20064;-51
2021/12/29 01:27:21;;;;;;;2.60;0.60;;;;;;;-145.00;100.00;60578.66;5076314;28;20056;-52
2021/12/29 01:29:49;;;;;;;1.25;0.55;;;;;;;-145.00;100.00;60578.66;5075640;28;20071;-52
2021/12/29 01:32:17;;;;;;;1.30;0.60;;;;;;;-145.00;100.00;60578.66;5075905;28;20070;-50
2021/12/29 01:34:45;;;;;;;1.33;0.60;;;;;;;-145.00;100.00;60578.66;5076452;28;20056;-52
2021/12/29 01:37:13;;;;;;;1.15;0.50;;;;;;;-145.00;100.00;60578.66;5074883;28;20057;-52
2021/12/29 01:39:42;;;;;;;1.83;0.52;;;;;;;-145.00;100.00;60578.66;5075792;28;20063;-51
2021/12/29 01:42:11;;;;;;;1.33;0.47;;;;;;;-145.00;100.00;60578.66;5075342;28;20057;-51
2021/12/29 01:44:39;;;;;;;1.02;0.55;;;;;;;-145.00;100.00;60578.66;5075809;28;20067;-49
2021/12/29 01:47:08;;;;;;;1.02;0.40;;;;;;;-145.00;100.00;60578.66;5075315;28;20075;-50
2021/12/29 01:49:37;;;;;;;1.42;0.63;;;;;;;-145.00;100.00;60578.66;5075871;28;20075;-50
2021/12/29 01:52:11;;;;;;;1.77;0.55;;;;;;;-145.00;100.00;60578.66;5075521;28;20504;-50
2021/12/29 01:54:40;;;;;;;0.80;0.40;;;;;;;-145.00;100.00;60578.66;5075191;28;20052;-52
2021/12/29 01:57:10;;;;;;;0.52;0.32;;;;;;;-145.00;100.00;60578.66;5075401;28;20060;-49
2021/12/29 01:59:40;;;;;;;0.82;0.50;;;;;;;-145.00;100.00;60578.66;5074816;28;20415;-51
2021/12/29 02:02:09;;;;;;;1.20;0.40;;;;;;;-145.00;100.00;60578.66;5075504;28;20071;-49
2021/12/29 02:04:37;;;;;;;1.98;0.40;;;;;;;-145.00;100.00;60578.66;5074713;28;20059;-49
2021/12/29 02:07:06;;;;;;;1.40;0.50;;;;;;;-145.00;100.00;60578.66;5075247;28;20052;-50
2021/12/29 02:09:35;;;;;;;1.35;0.30;;;;;;;-145.00;100.00;60578.66;5076005;28;20451;-49
2021/12/29 02:12:04;;;;;;;1.25;0.47;;;;;;;-145.00;100.00;60578.66;5075358;28;20052;-52
2021/12/29 02:14:33;;;;;;;0.85;0.52;;;;;;;-145.00;100.00;60578.66;5074538;28;20075;-50
2021/12/29 02:17:03;;;;;;;0.30;0.30;;;;;;;-145.00;100.00;60578.66;5074720;28;20059;-51
2021/12/29 02:19:31;;;;;;;1.58;0.40;;;;;;;-145.00;100.00;60578.66;5075100;28;20060;-51
2021/12/29 02:22:08;;;;;;;1.20;0.40;;;;;;;-145.00;100.00;60578.66;5074540;28;20071;-49
2021/12/29 02:24:40;;;;;;;1.02;0.50;;;;;;;-145.00;100.00;60578.66;5074395;28;20067;-50
2021/12/29 02:27:12;;;;;;;2.33;0.68;;;;;;;-145.00;100.00;60578.66;5074302;28;20571;-50
2021/12/29 02:29:42;;;;;;;0.70;0.30;;;;;;;-145.00;100.00;60578.66;5074324;28;20053;-50
2021/12/29 02:32:11;;;;;;;1.90;0.50;;;;;;;-145.00;100.00;60578.66;5074484;28;20057;-50
2021/12/29 02:34:40;;;;;;;0.85;0.40;;;;;;;-145.00;100.00;60578.66;5075349;28;20110;-50
2021/12/29 02:37:18;;;;;;;1.58;0.30;;;;;;;-145.00;100.00;60578.66;5074388;28;20056;-49
2021/12/29 02:39:47;;;;;;;1.45;0.40;;;;;;;-145.00;100.00;60578.66;5074989;28;20477;-50
2021/12/29 02:42:15;;;;;;;0.82;0.40;;;;;;;-145.00;100.00;60578.66;5074277;28;20052;-50
2021/12/29 02:44:45;;;;;;;1.50;0.40;;;;;;;-145.00;100.00;60578.66;5074106;28;20496;-49
2021/12/29 02:47:14;;;;;;;1.42;0.40;;;;;;;-145.00;100.00;60578.66;5074623;28;20059;-49
2021/12/29 02:49:42;;;;;;;0.68;0.40;;;;;;;-145.00;100.00;60578.66;5074111;28;20065;-50
2021/12/29 02:52:14;;;;;;;2.38;0.40;;;;;;;-145.00;100.00;60578.66;5074485;28;20511;-49
2021/12/29 02:54:42;;;;;;;2.33;0.40;;;;;;;-145.00;100.00;60578.66;5075380;28;20056;-52
2021/12/29 02:57:10;;;;;;;0.30;0.20;;;;;;;-145.00;100.00;60578.66;5075331;28;20056;-52
2021/12/29 02:59:38;;;;;;;2.30;0.60;;;;;;;-145.00;100.00;60578.66;5074127;28;20075;-49
2021/12/29 03:02:07;;;;;;;0.60;0.30;;;;;;;-145.00;100.00;60578.66;5074122;28;20057;-51
2021/12/29 03:04:35;;;;;;;0.25;0.25;;;;;;;-145.00;100.00;60578.66;5074670;28;20061;-50
2021/12/29 03:07:03;;;;;;;4.80;0.50;;;;;;;-145.00;100.00;60578.66;5074400;28;20057;-49
2021/12/29 03:09:34;;;;;;;0.65;0.47;;;;;;;-145.00;100.00;60578.66;5074024;28;20496;-51
2021/12/29 03:12:03;;;;;;;0.50;0.30;;;;;;;-145.00;100.00;60578.66;5074404;28;20084;-50
2021/12/29 03:14:31;;;;;;;0.20;0.20;;;;;;;-145.00;100.00;60578.66;5074954;28;20071;-51
2021/12/29 03:17:00;;;;;;;1.17;0.30;;;;;;;-145.00;100.00;60578.66;5074267;28;20064;-50
2021/12/29 03:19:28;;;;;;;0.65;0.28;;;;;;;-145.00;100.00;60578.66;5073877;28;20068;-50
2021/12/29 03:21:56;;;;;;;0.60;0.38;;;;;;;-145.00;100.00;60578.66;5074262;28;20420;-49
2021/12/29 03:24:24;;;;;;;0.28;0.28;;;;;;;-145.00;100.00;60578.66;5075042;28;20059;-52
2021/12/29 03:26:54;;;;;;;0.30;0.30;;;;;;;-145.00;100.00;60578.66;5074174;28;20064;-51
2021/12/29 03:29:22;;;;;;;0.90;0.40;;;;;;;-145.00;100.00;60578.66;5074184;28;20052;-52
2021/12/29 03:31:51;;;;;;;0.43;0.32;;;;;;;-145.00;100.00;60578.66;5074714;28;20064;-51
2021/12/29 03:34:19;;;;;;;0.30;0.30;;;;;;;-145.00;100.00;60578.66;5074582;28;20426;-52
2021/12/29 03:36:50;;;;;;;0.45;0.30;;;;;;;-145.00;100.00;60578.66;5074870;28;20057;-50
2021/12/29 03:39:18;;;;;;;0.30;0.30;;;;;;;-145.00;100.00;60578.66;5073989;28;20534;-51
2021/12/29 03:41:47;;;;;;;0.28;0.28;;;;;;;-145.00;100.00;60578.66;5074611;28;20072;-49
2021/12/29 03:44:17;;;;;;;0.30;0.30;;;;;;;-145.00;100.00;60578.66;5074255;28;20087;-50
2021/12/29 03:46:45;;;;;;;0.60;0.22;;;;;;;-145.00;100.00;60578.66;5074021;28;20052;-52
2021/12/29 03:49:13;;;;;;;1.77;0.50;;;;;;;-145.00;100.00;60578.66;5074008;28;20063;-50
2021/12/29 03:51:42;;;;;;;0.55;0.30;;;;;;;-145.00;100.00;60578.66;5073940;28;20052;-49
2021/12/29 03:54:10;;;;;;;2.10;0.50;;;;;;;-145.00;100.00;60578.66;5073415;28;20099;-50
2021/12/29 03:56:38;;;;;;;0.25;0.20;;;;;;;-145.00;100.00;60578.66;5074255;28;20056;-52
2021/12/29 03:59:06;;;;;;;1.95;0.30;;;;;;;-145.00;100.00;60578.66;5074463;28;20053;-49
2021/12/29 04:01:36;;;;;;;0.65;0.30;;;;;;;-145.00;100.00;60578.66;5077749;28;20071;-50
2021/12/29 04:04:05;;;;;;;2.33;0.30;;;;;;;-145.00;100.00;60578.66;5077864;28;20446;-52
2021/12/29 04:06:33;;;;;;;1.25;0.30;;;;;;;-145.00;100.00;60578.66;5077776;28;20063;-50
2021/12/29 04:09:01;;;;;;;0.82;0.20;;;;;;;-145.00;100.00;60578.66;5077521;28;20052;-51
2021/12/29 04:11:29;;;;;;;0.90;0.35;;;;;;;-145.00;100.00;60578.66;5077468;28;20060;-50
2021/12/29 04:13:57;;;;;;;0.20;0.20;;;;;;;-145.00;100.00;60578.66;5077186;28;20508;-52
2021/12/29 04:16:26;;;;;;;2.42;0.22;;;;;;;-145.00;100.00;60578.66;5077064;28;20063;-49
2021/12/29 04:19:14;;;;;;;0.32;0.30;;;;;;;-145.00;100.00;60578.66;5077435;28;20056;-50
2021/12/29 04:21:45;;;;;;;0.55;0.30;;;;;;;-145.00;100.00;60578.66;5077867;28;20052;-49
2021/12/29 04:24:13;;;;;;;3.92;0.40;;;;;;;-145.00;100.00;60578.66;5076936;28;20060;-50
2021/12/29 04:26:41;;;;;;;0.50;0.40;;;;;;;-145.00;100.00;60578.66;5076903;28;20053;-51
2021/12/29 04:29:13;;;;;;;0.20;0.20;;;;;;;-145.00;100.00;60578.66;5077329;28;20056;-51
2021/12/29 04:31:42;;;;;;;0.90;0.40;;;;;;;-145.00;100.00;60578.66;5077967;28;20064;-50
2021/12/29 04:34:11;;;;;;;0.32;0.20;;;;;;;-145.00;100.00;60578.66;5077931;28;20064;-49
2021/12/29 04:36:40;;;;;;;2.60;0.22;;;;;;;-145.00;100.00;60578.66;5076674;28;20512;-50
2021/12/29 04:39:09;;;;;;;0.20;0.20;;;;;;;-145.00;100.00;60578.66;5076995;28;20485;-50
2021/12/29 04:41:37;;;;;;;0.20;0.20;;;;;;;-145.00;100.00;60578.66;5076629;28;20052;-50
2021/12/29 04:44:06;;;;;;;0.30;0.30;;;;;;;-145.00;100.00;60578.66;5076262;28;20535;-50
2021/12/29 04:46:39;;;;;;;0.40;0.20;;;;;;;-145.00;100.00;60578.66;5076771;28;20063;-49
2021/12/29 04:49:11;;;;;;;2.63;0.25;;;;;;;-145.00;100.00;60578.66;5076279;28;20448;-51
2021/12/29 04:51:54;;;;;;;0.65;0.25;;;;;;;-145.00;100.00;60578.66;5077666;28;20056;-51
2021/12/29 04:54:22;;;;;;;0.40;0.32;;;;;;;-145.00;100.00;60578.66;5076735;28;20508;-52
2021/12/29 04:56:52;;;;;;;1.10;0.40;;;;;;;-145.00;100.00;60578.66;5077196;28;20068;-51
2021/12/29 04:59:20;;;;;;;2.42;0.70;;;;;;;-145.00;100.00;60578.66;5076260;28;20068;-49
2021/12/29 05:01:49;;;;;;;1.40;0.40;;;;;;;-145.00;100.00;60578.66;5076251;28;20110;-49
2021/12/29 05:04:28;;;;;;;0.93;0.60;;;;;;;-145.00;100.00;60578.66;5075918;28;20079;-52
2021/12/29 05:09:44;;;;;;;1.10;0.30;;;;;;;-145.00;100.00;60578.66;5076338;28;20067;-50
2021/12/29 05:12:12;;;;;;;2.45;0.52;;;;;;;-145.00;100.00;60578.66;5075087;28;20056;-52
2021/12/29 05:14:40;;;;;;;1.88;0.50;;;;;;;-145.00;100.00;60578.66;5076082;28;20065;-50
2021/12/29 05:17:09;;;;;;;0.80;0.63;;;;;;;-145.00;100.00;60578.66;5077107;28;20091;-50
2021/12/29 05:19:37;;;;;;;2.28;0.40;;;;;;;-145.00;100.00;60578.66;5076648;28;20056;-51
2021/12/29 05:22:09;;;;;;;1.65;0.60;;;;;;;-145.00;100.00;60578.66;5076185;28;20083;-49
2021/12/29 05:24:38;;;;;;;1.52;0.50;;;;;;;-145.00;100.00;60578.66;5075531;28;20419;-49
2021/12/29 05:27:06;;;;;;;0.70;0.47;;;;;;;-145.00;100.00;60578.66;5076045;28;20056;-50
2021/12/29 05:29:35;;;;;;;0.40;0.40;;;;;;;-145.00;100.00;60578.66;5075690;28;20064;-51
2021/12/29 05:32:03;;;;;;;3.80;0.50;;;;;;;-145.00;100.00;60578.66;5075967;28;20052;-51
2021/12/29 05:34:32;;;;;;;0.93;0.50;;;;;;;-145.00;100.00;60578.66;5076250;28;20083;-49
2021/12/29 05:37:00;;;;;;;1.80;0.50;;;;;;;-145.00;100.00;60578.66;5075870;28;20163;-50
2021/12/29 05:39:30;;;;;;;0.40;0.38;;;;;;;-145.00;100.00;60578.66;5075524;28;20048;-51
2021/12/29 05:41:58;;;;;;;2.67;1.40;;;;;;;-145.00;100.00;60578.66;5075451;28;20052;-50
2021/12/29 05:44:26;;;;;;;2.03;0.40;;;;;;;-145.00;100.00;60578.66;5075547;28;20053;-51
2021/12/29 05:46:54;;;;;;;2.67;0.47;;;;;;;-145.00;100.00;60578.66;5075698;28;20056;-50
2021/12/29 05:49:23;;;;;;;1.27;0.60;;;;;;;-145.00;100.00;60578.66;5075603;28;20056;-50
2021/12/29 05:51:51;;;;;;;2.28;0.50;;;;;;;-145.00;100.00;60578.66;5075234;28;20057;-52
2021/12/29 05:54:19;;;;;;;1.77;0.43;;;;;;;-145.00;100.00;60578.66;5075828;28;20075;-50
2021/12/29 05:56:49;;;;;;;2.70;0.65;;;;;;;-145.00;100.00;60578.66;5075453;28;20079;-52
2021/12/29 05:59:18;;;;;;;4.75;0.55;;;;;;;-145.00;100.00;60578.66;5075127;28;20057;-50
2021/12/29 06:01:46;;;;;;;1.75;0.80;;;;;;;-145.00;100.00;60578.66;5075002;28;20060;-50
2021/12/29 06:04:14;;;;;;;1.23;0.45;;;;;;;-145.00;100.00;60578.66;5074632;28;20060;-51
2021/12/29 06:06:43;;;;;;;1.67;0.82;;;;;;;-145.00;100.00;60578.66;5075492;28;20392;-50
2021/12/29 06:09:11;;;;;;;2.92;0.50;;;;;;;-145.00;100.00;60578.66;5075210;28;20060;-51
2021/12/29 06:11:39;;;;;;;3.20;0.60;;;;;;;-145.00;100.00;60578.66;5075186;28;20052;-51
2021/12/29 06:14:09;;;;;;;2.55;0.47;;;;;;;-145.00;100.00;60578.66;5076052;28;20373;-49
2021/12/29 06:16:37;;;;;;;1.88;0.55;;;;;;;-145.00;100.00;60578.66;5074984;28;20056;-49
2021/12/29 06:19:05;;;;;;;4.70;0.95;;;;;;;-145.00;100.00;60578.66;5075107;28;20385;-49
2021/12/29 06:21:34;;;;;;;8.68;1.50;;;;;;;-145.00;100.00;60578.66;5075233;28;20060;-49
2021/12/29 06:24:02;;;;;;;2.13;0.50;;;;;;;-145.00;100.00;60578.66;5074854;28;20056;-51
2021/12/29 06:26:30;;;;;;;0.88;0.40;;;;;;;-145.00;100.00;60578.66;5075454;28;20064;-50
2021/12/29 06:28:58;;;;;;;2.85;0.40;;;;;;;-145.00;100.00;60578.66;5074884;28;20088;-50
2021/12/29 06:31:28;;;;;;;2.80;0.60;;;;;;;-145.00;100.00;60578.66;5074556;28;20056;-49
2021/12/29 06:33:56;;;;;;;0.30;0.30;;;;;;;-145.00;100.00;60578.66;5075075;28;20052;-51
2021/12/29 06:36:25;;;;;;;4.10;0.43;;;;;;;-145.00;100.00;60578.66;5074742;28;20056;-52
2021/12/29 06:38:53;;;;;;;2.70;1.05;;;;;;;-145.00;100.00;60578.66;5074395;28;20075;-50
2021/12/29 06:41:21;;;;;;;6.38;0.47;;;;;;;-145.00;100.00;60578.66;5074689;28;20059;-51
2021/12/29 06:43:49;;;;;;;1.08;0.40;;;;;;;-145.00;100.00;60578.66;5075016;28;20079;-49
2021/12/29 06:46:18;;;;;;;2.58;0.50;;;;;;;-145.00;100.00;60578.66;5074510;28;20056;-51
2021/12/29 06:48:48;;;;;;;0.68;0.45;;;;;;;-145.00;100.00;60578.66;5074870;28;20061;-51
2021/12/29 06:51:16;;;;;;;1.63;0.40;;;;;;;-145.00;100.00;60578.66;5074574;28;20060;-50
2021/12/29 06:53:44;;;;;;;2.53;0.40;;;;;;;-145.00;100.00;60578.66;5073975;28;20059;-52
2021/12/29 06:56:12;;;;;;;1.95;0.40;;;;;;;-145.00;100.00;60578.66;5074200;28;20068;-50
2021/12/29 06:58:41;;;;;;;0.30;0.30;;;;;;;-145.00;100.00;60578.66;5074779;28;20056;-51
2021/12/29 07:01:09;;;;;;;1.85;0.40;;;;;;;-145.00;100.00;60578.66;5074154;28;20056;-49
2021/12/29 07:03:37;;;;;;;0.95;0.40;;;;;;;-145.00;100.00;60578.66;5074786;28;20056;-51
2021/12/29 07:06:07;;;;;;;1.70;0.55;;;;;;;-145.00;100.00;60578.66;5074021;28;20060;-49
2021/12/29 07:08:37;;;;;;;1.20;0.40;;;;;;;-145.00;100.00;60578.66;5074355;28;20427;-50
2021/12/29 07:11:05;;;;;;;1.52;0.40;;;;;;;-145.00;100.00;60578.66;5073804;28;20056;-49
2021/12/29 07:13:34;;;;;;;1.20;0.35;;;;;;;-145.00;100.00;60578.66;5074655;28;20064;-50
2021/12/29 07:16:02;;;;;;;1.45;0.90;;;;;;;-145.00;100.00;60578.66;5074331;28;20061;-51
2021/12/29 07:18:30;;;;;;;3.30;0.63;;;;;;;-145.00;100.00;60578.66;5074766;28;20052;-50
2021/12/29 07:20:58;;;;;;;2.03;0.52;;;;;;;-145.00;100.00;60578.66;5074052;28;20514;-50
2021/12/29 07:23:28;;;;;;;3.08;0.60;;;;;;;-145.00;100.00;60578.66;5073670;28;20500;-52
2021/12/29 07:25:56;;;;;;;1.52;0.52;;;;;;;-145.00;100.00;60578.66;5074155;28;20416;-51
2021/12/29 07:28:24;;;;;;;1.92;0.60;;;;;;;-145.00;100.00;60578.66;5074170;28;20064;-50
2021/12/29 07:30:53;;;;;;;2.70;0.65;;;;;;;-145.00;100.00;60578.66;5073793;28;20511;-50
2021/12/29 07:33:21;;;;;;;3.53;0.65;;;;;;;-145.00;100.00;60578.66;5074114;28;20068;-52
2021/12/29 07:35:49;;;;;;;0.85;0.30;;;;;;;-145.00;100.00;60578.66;5076965;28;20060;-51
2021/12/29 07:38:17;;;;;;;2.80;0.80;;;;;;;-145.00;100.00;60578.66;5078966;28;20056;-52
2021/12/29 07:40:47;;;;;;;1.65;0.50;;;;;;;-145.00;100.00;60578.66;5077760;28;20535;-49
2021/12/29 07:43:15;;;;;;;5.95;0.70;;;;;;;-145.00;100.00;60578.66;5077942;28;20056;-50
2021/12/29 07:45:44;;;;;;;1.90;0.70;;;;;;;-145.00;100.00;60578.66;5078230;28;20056;-51
2021/12/29 07:48:12;;;;;;;2.75;0.60;;;;;;;-145.00;100.00;60578.66;5077543;28;20577;-49
2021/12/29 07:50:40;;;;;;;2.38;0.68;;;;;;;-145.00;100.00;60578.66;5078272;28;20056;-51
2021/12/29 07:53:09;;;;;;;3.30;0.63;;;;;;;-145.00;100.00;60578.66;5077513;28;20424;-50
2021/12/29 07:55:37;;;;;;;1.40;0.50;;;;;;;-145.00;100.00;60578.66;5078507;28;20071;-52
2021/12/29 07:58:07;;;;;;;1.50;0.50;;;;;;;-145.00;100.00;60578.66;5077729;28;20057;-51
2021/12/29 08:00:35;;;;;;;2.22;0.95;;;;;;;-145.00;100.00;60578.66;5078706;28;20060;-50
2021/12/29 08:03:04;;;;;;;2.75;0.70;;;;;;;-145.00;100.00;60578.66;5078143;28;20059;-50
2021/12/29 08:05:32;;;;;;;1.00;0.43;;;;;;;-145.00;100.00;60578.66;5077660;28;20060;-50
2021/12/29 08:08:02;;;;;;;3.35;0.60;;;;;;;-145.00;100.00;60578.66;5077176;28;20057;-51
2021/12/29 08:10:30;;;;;;;1.95;0.50;;;;;;;-145.00;100.00;60578.66;5078231;28;20056;-50
2021/12/29 08:12:58;;;;;;;1.27;0.57;;;;;;;-145.00;100.00;60578.66;5077442;28;20055;-51
2021/12/29 08:15:29;;;;;;;1.85;0.50;;;;;;;-145.00;100.00;60578.66;5078179;28;20053;-51
2021/12/29 08:17:58;;;;;;;2.35;0.55;;;;;;;-145.00;100.00;60578.66;5076558;28;20527;-52
2021/12/29 08:20:26;;;;;;;1.70;0.50;;;;;;;-145.00;100.00;60578.66;5076740;28;20060;-52
2021/12/29 08:22:55;;;;;;;2.55;0.40;;;;;;;-145.00;100.00;60578.66;5076880;28;20052;-50
2021/12/29 08:25:23;;;;;;;2.30;0.50;;;;;;;-145.00;100.00;60578.66;5077643;28;20059;-52
2021/12/29 08:27:51;;;;;;;2.60;0.55;;;;;;;-145.00;100.00;60578.66;5076666;28;20053;-50
2021/12/29 08:30:19;;;;;;;3.53;0.40;;;;;;;-145.00;100.00;60578.66;5076781;28;20048;-50
2021/12/29 08:32:49;;;;;;;0.70;0.38;;;;;;;-145.00;100.00;60578.66;5076937;28;20108;-52
2021/12/29 08:35:18;;;;;;;2.13;0.55;;;;;;;-145.00;100.00;60578.66;5077305;28;20064;-52
2021/12/29 08:37:46;;;;;;;1.85;0.65;;;;;;;-145.00;100.00;60578.66;5077489;28;20110;-51
2021/12/29 08:40:15;;;;;;;1.98;0.70;;;;;;;-145.00;100.00;60578.66;5077176;28;20415;-51
2021/12/29 08:42:46;;;;;;;2.03;0.75;;;;;;;-145.00;100.00;60578.66;5076503;28;20508;-50
2021/12/29 08:45:23;;;;;;;2.58;0.65;;;;;;;-145.00;100.00;60578.66;5077189;28;20057;-50
2021/12/29 08:47:55;;;;;;;4.85;1.30;;;;;;;-145.00;100.00;60578.66;5076412;28;20072;-52
2021/12/29 08:50:25;;;;;;;;;;;;;;;-145.00;100.00;60578.66;5076693;28;20063;-50
2021/12/29 08:52:53;;;;;;;1.83;0.40;;;;;;;-145.00;100.00;60578.66;5076748;28;19924;-52
2021/12/29 08:55:22;;;;;;;3.10;0.60;;;;;;;-145.00;100.00;60578.66;5076060;28;20056;-51
2021/12/29 08:57:50;;;;;;;1.40;0.80;;;;;;;-145.00;100.00;60578.66;5076632;28;20056;-50
2021/12/29 09:00:19;;;;;;;1.50;0.45;;;;;;;-145.00;100.00;60578.66;5076293;28;20500;-52
2021/12/29 09:02:48;;;;;;;1.60;0.50;;;;;;;-145.00;100.00;60578.66;5076669;28;20408;-51
2021/12/29 09:05:18;;;;;;;3.65;0.77;;;;;;;-145.00;100.00;60578.66;5077129;28;20092;-50
2021/12/29 09:07:47;;;;;;;1.73;0.43;;;;;;;-145.00;100.00;60578.66;5077278;28;20057;-52
2021/12/29 09:10:18;;;;;;;2.35;1.05;;;;;;;-145.00;100.00;60578.66;5076437;28;20064;-51
2021/12/29 09:12:48;;;;;;;1.02;0.40;;;;;;;-145.00;100.00;60578.66;5076707;28;20083;-50
2021/12/29 09:15:16;;;;;;;0.85;0.35;;;;;;;-145.00;100.00;60578.66;5076622;28;20141;-52
2021/12/29 09:17:45;;;;;;;2.97;0.50;;;;;;;-145.00;100.00;60578.66;5076294;28;20064;-49
2021/12/29 09:20:23;;;;;;;2.75;0.40;;;;;;;-145.00;100.00;60578.66;5077838;28;20061;-50
2021/12/29 09:22:54;;;;;;;1.52;0.40;;;;;;;-145.00;100.00;60578.66;5075635;28;20052;-50
2021/12/29 09:25:23;;;;;;;1.38;0.50;;;;;;;-145.00;100.00;60578.66;5075802;28;20500;-50
2021/12/29 09:27:52;;;;;;;3.42;0.40;;;;;;;-145.00;100.00;60578.66;5075625;28;20060;-52
2021/12/29 09:30:21;;;;;;;1.52;0.45;;;;;;;-145.00;100.00;60578.66;5075966;28;20053;-51
2021/12/29 09:32:49;;;;;;;1.23;0.50;;;;;;;-145.00;100.00;60578.66;5075886;28;20057;-50
2021/12/29 09:35:20;;;;;;;0.77;0.30;;;;;;;-145.00;100.00;60578.66;5075378;28;20067;-52
2021/12/29 09:37:51;;;;;;;1.30;0.50;;;;;;;-145.00;100.00;60578.66;5076149;28;20131;-49
2021/12/29 09:40:22;;;;;;;4.88;0.60;;;;;;;-145.00;100.00;60578.66;5076352;28;20052;-51
2021/12/29 09:42:52;;;;;;;1.47;1.03;;;;;;;-145.00;100.00;60578.66;5075239;28;20052;-50
2021/12/29 09:45:21;;;;;;;3.92;0.60;;;;;;;-145.00;100.00;60578.66;5076271;28;20635;-50
2021/12/29 09:47:50;;;;;;;1.90;0.50;;;;;;;-145.00;100.00;60578.66;5075805;28;20135;-50
2021/12/29 09:50:20;;;;;;;1.10;0.43;;;;;;;-145.00;100.00;60578.66;5075574;28;20095;-49
2021/12/29 09:52:49;;;;;;;1.90;0.43;;;;;;;-145.00;100.00;60578.66;5075277;28;20110;-49
2021/12/29 09:55:19;;;;;;;2.35;0.30;;;;;;;-145.00;100.00;60578.66;5075208;28;20049;-50
2021/12/29 09:57:51;;;;;;;1.58;0.40;;;;;;;-145.00;100.00;60578.66;5074927;28;20073;-50
2021/12/29 10:00:25;;;;;;;1.80;0.40;;;;;;;-145.00;100.00;60578.66;5075678;28;20056;-52
2021/12/29 10:02:54;;;;;;;2.05;0.40;;;;;;;-145.00;100.00;60578.66;5075949;28;20091;-51
2021/12/29 10:05:26;;;;;;;2.50;0.40;;;;;;;-145.00;100.00;60578.66;5075874;28;20131;-51
2021/12/29 10:08:00;;;;;;;2.25;1.15;;;;;;;-145.00;100.00;60578.66;5075618;28;20068;-52
2021/12/29 10:10:29;;;;;;;0.80;0.30;;;;;;;-145.00;100.00;60578.66;5074616;28;20057;-50
2021/12/29 10:12:59;;;;;;;2.72;0.52;;;;;;;-145.00;100.00;60578.66;5075113;28;20053;-52
2021/12/29 10:15:30;;;;;;;1.25;0.45;;;;;;;-145.00;100.00;60578.66;5075448;28;20405;-50
2021/12/29 10:18:03;;;;;;;5.32;0.60;;;;;;;-145.00;100.00;60578.66;5074550;28;20063;-51
2021/12/29 10:20:32;;;;;;;3.03;0.40;;;;;;;-145.00;100.00;60578.66;5074355;28;20059;-50
2021/12/29 10:23:01;;;;;;;1.98;0.50;;;;;;;-145.00;100.00;60578.66;5074910;28;20057;-50
2021/12/29 10:25:35;;;;;;;1.48;0.40;;;;;;;-145.00;100.00;60578.66;5074320;28;20056;-51
2021/12/29 10:28:05;;;;;;;2.53;0.30;;;;;;;-145.00;100.00;60578.66;5074945;28;20057;-50
2021/12/29 10:30:33;;;;;;;5.68;0.60;;;;;;;-145.00;100.00;60578.66;5074809;28;20496;-51
2021/12/29 10:33:11;;;;;;;1.90;0.50;;;;;;;-145.00;100.00;60578.66;5074445;28;20056;-51
2021/12/29 10:35:40;;;;;;;0.55;0.30;;;;;;;-145.00;100.00;60578.66;5074490;28;20064;-52
2021/12/29 10:38:13;;;;;;;2.33;0.60;;;;;;;-145.00;100.00;60578.66;5075789;28;20068;-51
2021/12/29 10:40:41;;;;;;;2.17;0.40;;;;;;;-145.00;100.00;60578.66;5074647;28;20056;-50
2021/12/29 10:43:11;;;;;;;2.58;0.63;;;;;;;-145.00;100.00;60578.66;5074359;28;20052;-52
2021/12/29 10:45:42;;;;;;;2.10;0.77;;;;;;;-145.00;100.00;60578.66;5075201;28;20405;-50
2021/12/29 10:48:22;;;;;;;4.97;1.48;;;;;;;-145.00;100.00;60578.66;5074608;28;20056;-52
2021/12/29 10:50:59;;;;;;;3.00;1.13;;;;;;;-145.00;100.00;60578.66;5075364;28;20056;-52
2021/12/29 10:53:28;;;;;;;4.10;0.60;;;;;;;-145.00;100.00;60578.66;5074481;28;20053;-52
2021/12/29 10:55:56;;;;;;;2.03;0.82;;;;;;;-145.00;100.00;60578.66;5074836;28;20423;-51
2021/12/29 10:58:29;;;;;;;1.80;1.40;;;;;;;-145.00;100.00;60578.66;5074483;28;20057;-51
2021/12/29 11:01:00;;;;;;;4.95;1.20;;;;;;;-145.00;100.00;60578.66;5074595;28;20131;-50
2021/12/29 11:03:30;;;;;;;5.35;0.70;;;;;;;-145.00;100.00;60578.66;5073837;28;20102;-51
2021/12/29 11:06:00;;;;;;;2.88;0.70;;;;;;;-145.00;100.00;60578.66;5074042;28;20060;-51
2021/12/29 11:08:30;;;;;;;2.10;0.52;;;;;;;-145.00;100.00;60578.66;5073665;28;20503;-51
2021/12/29 11:11:04;;;;;;;2.85;0.90;;;;;;;-145.00;100.00;60578.66;5073812;28;20531;-52
2021/12/29 11:13:35;;;;;;;3.15;0.80;;;;;;;-145.00;100.00;60578.66;5075175;28;20056;-52
2021/12/29 11:16:05;;;;;;;1.25;0.40;;;;;;;-145.00;100.00;60578.66;5073746;28;20063;-50
2021/12/29 11:18:44;;;;;;;2.45;0.70;;;;;;;-145.00;100.00;60578.66;5073690;28;20535;-51
2021/12/29 11:21:13;;;;;;;5.10;1.05;;;;;;;-145.00;100.00;60578.66;5073952;28;20057;-50